sensor_id;sensor_type;location;lat;lon;timestamp;P1;durP1;ratioP1;P2;durP2;ratioP2
23290;SDS011;11814;44.686;10.842;2022-10-16T00:01:21;35.10;;;23.58;;
23290;SDS011;11814;44.686;10.842;2022-10-16T00:03:48;34.75;;;22.58;;
23290;SDS011;11814;44.686;10.842;2022-10-16T00:06:15;32.50;;;22.67;;
23290;SDS011;11814;44.686;10.842;2022-10-16T00:08:42;39.58;;;24.98;;
23290;SDS011;11814;44.686;10.842;2022-10-16T00:11:10;35.72;;;24.02;;
23290;SDS011;11814;44.686;10.842;2022-10-16T00:13:39;37.85;;;24.75;;
23290;SDS011;11814;44.686;10.842;2022-10-16T00:16:05;40.53;;;26.38;;
23290;SDS011;11814;44.686;10.842;2022-10-16T00:18:32;41.03;;;24.67;;
23290;SDS011;11814;44.686;10.842;2022-10-16T00:21:08;43.13;;;25.92;;
23290;SDS011;11814;44.686;10.842;2022-10-16T00:23:35;34.88;;;23.20;;
23290;SDS011;11814;44.686;10.842;2022-10-16T00:26:03;33.58;;;21.95;;
23290;SDS011;11814;44.686;10.842;2022-10-16T00:28:31;34.92;;;21.83;;
23290;SDS011;11814;44.686;10.842;2022-10-16T00:30:57;26.45;;;19.23;;
23290;SDS011;11814;44.686;10.842;2022-10-16T00:33:23;36.67;;;24.15;;
23290;SDS011;11814;44.686;10.842;2022-10-16T00:35:49;33.60;;;21.52;;
23290;SDS011;11814;44.686;10.842;2022-10-16T00:38:15;32.47;;;22.02;;
23290;SDS011;11814;44.686;10.842;2022-10-16T00:40:41;35.22;;;23.70;;
23290;SDS011;11814;44.686;10.842;2022-10-16T00:43:31;35.75;;;23.90;;
23290;SDS011;11814;44.686;10.842;2022-10-16T00:45:59;38.75;;;25.02;;
23290;SDS011;11814;44.686;10.842;2022-10-16T00:48:26;39.63;;;24.45;;
23290;SDS011;11814;44.686;10.842;2022-10-16T00:50:52;37.05;;;23.30;;
23290;SDS011;11814;44.686;10.842;2022-10-16T00:53:18;35.65;;;24.70;;
23290;SDS011;11814;44.686;10.842;2022-10-16T00:55:44;39.25;;;25.10;;
23290;SDS011;11814;44.686;10.842;2022-10-16T00:58:11;34.08;;;23.52;;
23290;SDS011;11814;44.686;10.842;2022-10-16T01:00:36;33.78;;;21.13;;
23290;SDS011;11814;44.686;10.842;2022-10-16T01:03:03;32.42;;;22.58;;
23290;SDS011;11814;44.686;10.842;2022-10-16T01:05:49;38.05;;;24.92;;
23290;SDS011;11814;44.686;10.842;2022-10-16T01:08:26;34.65;;;23.92;;
23290;SDS011;11814;44.686;10.842;2022-10-16T01:11:07;37.35;;;24.15;;
23290;SDS011;11814;44.686;10.842;2022-10-16T01:13:55;39.75;;;24.88;;
23290;SDS011;11814;44.686;10.842;2022-10-16T01:16:48;32.38;;;23.00;;
23290;SDS011;11814;44.686;10.842;2022-10-16T01:22:22;33.03;;;21.27;;
23290;SDS011;11814;44.686;10.842;2022-10-16T01:24:52;36.90;;;23.52;;
23290;SDS011;11814;44.686;10.842;2022-10-16T01:38:25;36.58;;;23.17;;
23290;SDS011;11814;44.686;10.842;2022-10-16T01:40:55;39.60;;;27.35;;
23290;SDS011;11814;44.686;10.842;2022-10-16T01:43:48;41.97;;;28.70;;
23290;SDS011;11814;44.686;10.842;2022-10-16T01:46:15;40.28;;;25.98;;
23290;SDS011;11814;44.686;10.842;2022-10-16T01:48:44;35.47;;;24.70;;
23290;SDS011;11814;44.686;10.842;2022-10-16T01:51:14;42.72;;;26.17;;
23290;SDS011;11814;44.686;10.842;2022-10-16T01:53:42;39.45;;;26.92;;
23290;SDS011;11814;44.686;10.842;2022-10-16T01:56:12;41.38;;;28.42;;
23290;SDS011;11814;44.686;10.842;2022-10-16T01:58:42;40.50;;;28.10;;
23290;SDS011;11814;44.686;10.842;2022-10-16T02:01:20;34.90;;;24.52;;
23290;SDS011;11814;44.686;10.842;2022-10-16T02:03:48;44.80;;;27.33;;
23290;SDS011;11814;44.686;10.842;2022-10-16T02:06:18;42.95;;;28.38;;
23290;SDS011;11814;44.686;10.842;2022-10-16T02:08:44;40.78;;;27.38;;
23290;SDS011;11814;44.686;10.842;2022-10-16T02:11:11;45.45;;;27.88;;
23290;SDS011;11814;44.686;10.842;2022-10-16T02:13:57;38.30;;;26.08;;
23290;SDS011;11814;44.686;10.842;2022-10-16T02:16:32;37.67;;;26.17;;
23290;SDS011;11814;44.686;10.842;2022-10-16T02:18:59;49.65;;;29.85;;
23290;SDS011;11814;44.686;10.842;2022-10-16T02:21:26;45.22;;;29.70;;
23290;SDS011;11814;44.686;10.842;2022-10-16T02:24:11;43.60;;;28.98;;
23290;SDS011;11814;44.686;10.842;2022-10-16T02:26:49;45.88;;;31.70;;
23290;SDS011;11814;44.686;10.842;2022-10-16T02:29:24;43.17;;;27.90;;
23290;SDS011;11814;44.686;10.842;2022-10-16T02:31:53;37.20;;;25.30;;
23290;SDS011;11814;44.686;10.842;2022-10-16T02:34:26;33.47;;;24.02;;
23290;SDS011;11814;44.686;10.842;2022-10-16T02:36:55;36.05;;;24.63;;
23290;SDS011;11814;44.686;10.842;2022-10-16T02:39:22;39.10;;;26.00;;
23290;SDS011;11814;44.686;10.842;2022-10-16T02:41:48;36.20;;;26.17;;
23290;SDS011;11814;44.686;10.842;2022-10-16T02:44:14;39.42;;;27.17;;
23290;SDS011;11814;44.686;10.842;2022-10-16T02:46:39;44.50;;;29.52;;
23290;SDS011;11814;44.686;10.842;2022-10-16T02:49:05;41.83;;;28.88;;
23290;SDS011;11814;44.686;10.842;2022-10-16T02:51:31;45.80;;;28.50;;
23290;SDS011;11814;44.686;10.842;2022-10-16T02:53:57;38.97;;;26.73;;
23290;SDS011;11814;44.686;10.842;2022-10-16T02:56:22;37.05;;;24.70;;
23290;SDS011;11814;44.686;10.842;2022-10-16T02:58:48;35.38;;;24.50;;
23290;SDS011;11814;44.686;10.842;2022-10-16T03:01:14;34.28;;;24.85;;
23290;SDS011;11814;44.686;10.842;2022-10-16T03:03:41;41.25;;;29.00;;
23290;SDS011;11814;44.686;10.842;2022-10-16T03:06:08;39.75;;;24.25;;
23290;SDS011;11814;44.686;10.842;2022-10-16T03:08:33;37.60;;;25.77;;
23290;SDS011;11814;44.686;10.842;2022-10-16T03:10:59;40.92;;;25.92;;
23290;SDS011;11814;44.686;10.842;2022-10-16T03:13:25;42.30;;;26.25;;
23290;SDS011;11814;44.686;10.842;2022-10-16T03:15:50;49.60;;;28.98;;
23290;SDS011;11814;44.686;10.842;2022-10-16T03:18:16;44.58;;;27.73;;
23290;SDS011;11814;44.686;10.842;2022-10-16T03:20:42;37.83;;;25.52;;
23290;SDS011;11814;44.686;10.842;2022-10-16T03:23:08;39.70;;;28.00;;
23290;SDS011;11814;44.686;10.842;2022-10-16T03:25:34;37.63;;;27.73;;
23290;SDS011;11814;44.686;10.842;2022-10-16T03:28:00;40.90;;;26.55;;
23290;SDS011;11814;44.686;10.842;2022-10-16T03:30:26;40.55;;;25.42;;
23290;SDS011;11814;44.686;10.842;2022-10-16T03:32:52;46.15;;;26.70;;
23290;SDS011;11814;44.686;10.842;2022-10-16T03:35:19;39.78;;;25.95;;
23290;SDS011;11814;44.686;10.842;2022-10-16T03:37:45;42.17;;;28.08;;
23290;SDS011;11814;44.686;10.842;2022-10-16T03:40:11;45.85;;;29.50;;
23290;SDS011;11814;44.686;10.842;2022-10-16T03:42:37;39.67;;;24.77;;
23290;SDS011;11814;44.686;10.842;2022-10-16T03:45:03;39.58;;;26.55;;
23290;SDS011;11814;44.686;10.842;2022-10-16T03:47:29;38.45;;;25.90;;
23290;SDS011;11814;44.686;10.842;2022-10-16T03:49:57;37.63;;;25.55;;
23290;SDS011;11814;44.686;10.842;2022-10-16T03:52:23;42.33;;;27.55;;
23290;SDS011;11814;44.686;10.842;2022-10-16T03:54:49;42.33;;;27.80;;
23290;SDS011;11814;44.686;10.842;2022-10-16T03:57:15;46.67;;;30.33;;
23290;SDS011;11814;44.686;10.842;2022-10-16T03:59:41;44.40;;;30.25;;
23290;SDS011;11814;44.686;10.842;2022-10-16T04:02:07;44.28;;;27.38;;
23290;SDS011;11814;44.686;10.842;2022-10-16T04:04:32;37.38;;;25.48;;
23290;SDS011;11814;44.686;10.842;2022-10-16T04:06:58;36.97;;;26.90;;
23290;SDS011;11814;44.686;10.842;2022-10-16T04:09:24;39.35;;;26.65;;
23290;SDS011;11814;44.686;10.842;2022-10-16T04:11:49;46.83;;;30.08;;
23290;SDS011;11814;44.686;10.842;2022-10-16T04:14:15;47.08;;;29.02;;
23290;SDS011;11814;44.686;10.842;2022-10-16T04:16:41;43.20;;;28.25;;
23290;SDS011;11814;44.686;10.842;2022-10-16T04:19:07;45.85;;;31.08;;
23290;SDS011;11814;44.686;10.842;2022-10-16T04:21:33;48.17;;;31.60;;
23290;SDS011;11814;44.686;10.842;2022-10-16T04:23:59;47.20;;;30.17;;
23290;SDS011;11814;44.686;10.842;2022-10-16T04:26:25;45.55;;;30.92;;
23290;SDS011;11814;44.686;10.842;2022-10-16T04:28:51;48.63;;;32.85;;
23290;SDS011;11814;44.686;10.842;2022-10-16T04:31:16;51.13;;;31.80;;
23290;SDS011;11814;44.686;10.842;2022-10-16T04:33:42;39.22;;;28.52;;
23290;SDS011;11814;44.686;10.842;2022-10-16T04:36:08;36.10;;;26.17;;
23290;SDS011;11814;44.686;10.842;2022-10-16T04:38:34;46.78;;;28.25;;
23290;SDS011;11814;44.686;10.842;2022-10-16T04:41:02;40.10;;;27.23;;
23290;SDS011;11814;44.686;10.842;2022-10-16T04:43:28;40.83;;;27.17;;
23290;SDS011;11814;44.686;10.842;2022-10-16T04:45:54;46.60;;;30.02;;
23290;SDS011;11814;44.686;10.842;2022-10-16T04:48:21;45.97;;;29.08;;
23290;SDS011;11814;44.686;10.842;2022-10-16T04:50:47;45.35;;;30.70;;
23290;SDS011;11814;44.686;10.842;2022-10-16T04:53:13;42.90;;;29.52;;
23290;SDS011;11814;44.686;10.842;2022-10-16T04:55:38;45.67;;;29.17;;
23290;SDS011;11814;44.686;10.842;2022-10-16T04:58:04;41.58;;;28.30;;
23290;SDS011;11814;44.686;10.842;2022-10-16T05:00:30;48.22;;;31.05;;
23290;SDS011;11814;44.686;10.842;2022-10-16T05:02:56;45.88;;;29.50;;
23290;SDS011;11814;44.686;10.842;2022-10-16T05:05:23;42.10;;;28.98;;
23290;SDS011;11814;44.686;10.842;2022-10-16T05:07:49;46.67;;;30.05;;
23290;SDS011;11814;44.686;10.842;2022-10-16T05:10:15;52.65;;;32.33;;
23290;SDS011;11814;44.686;10.842;2022-10-16T05:12:40;46.40;;;31.10;;
23290;SDS011;11814;44.686;10.842;2022-10-16T05:15:06;41.38;;;29.15;;
23290;SDS011;11814;44.686;10.842;2022-10-16T05:17:32;48.40;;;31.35;;
23290;SDS011;11814;44.686;10.842;2022-10-16T05:19:58;46.83;;;30.13;;
23290;SDS011;11814;44.686;10.842;2022-10-16T05:22:24;44.83;;;29.80;;
23290;SDS011;11814;44.686;10.842;2022-10-16T05:24:50;42.38;;;29.48;;
23290;SDS011;11814;44.686;10.842;2022-10-16T05:27:15;44.10;;;29.25;;
23290;SDS011;11814;44.686;10.842;2022-10-16T05:29:47;42.53;;;26.83;;
23290;SDS011;11814;44.686;10.842;2022-10-16T05:32:17;41.08;;;28.48;;
23290;SDS011;11814;44.686;10.842;2022-10-16T05:34:44;45.53;;;30.65;;
23290;SDS011;11814;44.686;10.842;2022-10-16T05:37:10;49.58;;;33.63;;
23290;SDS011;11814;44.686;10.842;2022-10-16T05:39:36;53.63;;;33.97;;
23290;SDS011;11814;44.686;10.842;2022-10-16T05:42:03;56.97;;;34.63;;
23290;SDS011;11814;44.686;10.842;2022-10-16T05:44:30;49.33;;;32.00;;
23290;SDS011;11814;44.686;10.842;2022-10-16T05:46:55;47.65;;;32.70;;
23290;SDS011;11814;44.686;10.842;2022-10-16T05:49:21;46.00;;;30.88;;
23290;SDS011;11814;44.686;10.842;2022-10-16T05:51:47;52.92;;;29.73;;
23290;SDS011;11814;44.686;10.842;2022-10-16T05:54:12;44.53;;;28.73;;
23290;SDS011;11814;44.686;10.842;2022-10-16T05:56:38;43.63;;;27.70;;
23290;SDS011;11814;44.686;10.842;2022-10-16T05:59:04;45.08;;;29.10;;
23290;SDS011;11814;44.686;10.842;2022-10-16T06:01:30;45.85;;;30.50;;
23290;SDS011;11814;44.686;10.842;2022-10-16T06:03:56;40.30;;;26.65;;
23290;SDS011;11814;44.686;10.842;2022-10-16T06:06:23;44.08;;;28.98;;
23290;SDS011;11814;44.686;10.842;2022-10-16T06:08:51;44.75;;;28.55;;
23290;SDS011;11814;44.686;10.842;2022-10-16T06:11:21;40.72;;;28.65;;
23290;SDS011;11814;44.686;10.842;2022-10-16T06:13:52;46.88;;;29.35;;
23290;SDS011;11814;44.686;10.842;2022-10-16T06:16:19;42.10;;;29.38;;
23290;SDS011;11814;44.686;10.842;2022-10-16T06:18:45;42.88;;;28.40;;
23290;SDS011;11814;44.686;10.842;2022-10-16T06:21:12;42.10;;;27.17;;
23290;SDS011;11814;44.686;10.842;2022-10-16T06:23:42;42.20;;;26.85;;
23290;SDS011;11814;44.686;10.842;2022-10-16T06:26:09;40.85;;;27.60;;
23290;SDS011;11814;44.686;10.842;2022-10-16T06:28:36;46.38;;;30.17;;
23290;SDS011;11814;44.686;10.842;2022-10-16T06:31:03;43.42;;;30.45;;
23290;SDS011;11814;44.686;10.842;2022-10-16T06:33:30;50.70;;;33.33;;
23290;SDS011;11814;44.686;10.842;2022-10-16T06:36:06;46.13;;;30.67;;
23290;SDS011;11814;44.686;10.842;2022-10-16T06:38:36;41.35;;;27.30;;
23290;SDS011;11814;44.686;10.842;2022-10-16T06:41:03;41.13;;;26.23;;
23290;SDS011;11814;44.686;10.842;2022-10-16T06:43:29;41.55;;;28.40;;
23290;SDS011;11814;44.686;10.842;2022-10-16T06:46:00;43.03;;;27.77;;
23290;SDS011;11814;44.686;10.842;2022-10-16T06:48:27;42.00;;;28.38;;
23290;SDS011;11814;44.686;10.842;2022-10-16T06:51:01;37.40;;;25.65;;
23290;SDS011;11814;44.686;10.842;2022-10-16T06:53:29;33.88;;;25.52;;
23290;SDS011;11814;44.686;10.842;2022-10-16T06:55:56;32.75;;;24.33;;
23290;SDS011;11814;44.686;10.842;2022-10-16T06:58:23;33.38;;;24.33;;
23290;SDS011;11814;44.686;10.842;2022-10-16T07:00:54;33.92;;;24.10;;
23290;SDS011;11814;44.686;10.842;2022-10-16T07:03:21;33.95;;;23.77;;
23290;SDS011;11814;44.686;10.842;2022-10-16T07:05:47;39.00;;;25.13;;
23290;SDS011;11814;44.686;10.842;2022-10-16T07:08:13;33.88;;;23.95;;
23290;SDS011;11814;44.686;10.842;2022-10-16T07:10:38;37.10;;;23.15;;
23290;SDS011;11814;44.686;10.842;2022-10-16T07:13:04;31.65;;;22.17;;
23290;SDS011;11814;44.686;10.842;2022-10-16T07:15:32;34.05;;;23.88;;
23290;SDS011;11814;44.686;10.842;2022-10-16T07:17:58;36.58;;;24.70;;
23290;SDS011;11814;44.686;10.842;2022-10-16T07:20:24;38.35;;;26.77;;
23290;SDS011;11814;44.686;10.842;2022-10-16T07:22:49;40.63;;;29.05;;
23290;SDS011;11814;44.686;10.842;2022-10-16T07:25:16;39.58;;;28.33;;
23290;SDS011;11814;44.686;10.842;2022-10-16T07:27:42;53.83;;;34.80;;
23290;SDS011;11814;44.686;10.842;2022-10-16T07:30:08;44.58;;;32.28;;
23290;SDS011;11814;44.686;10.842;2022-10-16T07:32:34;43.33;;;30.48;;
23290;SDS011;11814;44.686;10.842;2022-10-16T07:34:59;50.65;;;37.35;;
23290;SDS011;11814;44.686;10.842;2022-10-16T07:37:25;51.42;;;37.85;;
23290;SDS011;11814;44.686;10.842;2022-10-16T07:39:51;55.95;;;36.55;;
23290;SDS011;11814;44.686;10.842;2022-10-16T07:42:16;55.55;;;38.10;;
23290;SDS011;11814;44.686;10.842;2022-10-16T07:44:42;45.42;;;31.73;;
23290;SDS011;11814;44.686;10.842;2022-10-16T07:47:08;40.10;;;29.48;;
23290;SDS011;11814;44.686;10.842;2022-10-16T07:49:34;31.90;;;23.67;;
23290;SDS011;11814;44.686;10.842;2022-10-16T07:52:00;23.92;;;18.42;;
23290;SDS011;11814;44.686;10.842;2022-10-16T07:54:25;26.70;;;19.15;;
23290;SDS011;11814;44.686;10.842;2022-10-16T07:56:51;19.58;;;15.63;;
23290;SDS011;11814;44.686;10.842;2022-10-16T07:59:17;24.27;;;15.65;;
23290;SDS011;11814;44.686;10.842;2022-10-16T08:01:42;21.23;;;14.57;;
23290;SDS011;11814;44.686;10.842;2022-10-16T08:04:08;19.65;;;14.23;;
23290;SDS011;11814;44.686;10.842;2022-10-16T08:06:38;22.23;;;13.60;;
23290;SDS011;11814;44.686;10.842;2022-10-16T08:09:08;22.73;;;12.13;;
23290;SDS011;11814;44.686;10.842;2022-10-16T08:11:34;21.00;;;14.10;;
23290;SDS011;11814;44.686;10.842;2022-10-16T08:14:00;24.35;;;14.15;;
23290;SDS011;11814;44.686;10.842;2022-10-16T08:16:26;20.90;;;14.13;;
23290;SDS011;11814;44.686;10.842;2022-10-16T08:18:52;20.30;;;12.60;;
23290;SDS011;11814;44.686;10.842;2022-10-16T08:21:18;18.38;;;13.82;;
23290;SDS011;11814;44.686;10.842;2022-10-16T08:23:48;18.38;;;13.60;;
23290;SDS011;11814;44.686;10.842;2022-10-16T08:26:15;21.52;;;15.18;;
23290;SDS011;11814;44.686;10.842;2022-10-16T08:28:40;20.30;;;14.55;;
23290;SDS011;11814;44.686;10.842;2022-10-16T08:31:13;22.00;;;15.43;;
23290;SDS011;11814;44.686;10.842;2022-10-16T08:33:41;27.70;;;18.15;;
23290;SDS011;11814;44.686;10.842;2022-10-16T08:36:09;28.60;;;20.25;;
23290;SDS011;11814;44.686;10.842;2022-10-16T08:38:36;38.55;;;21.85;;
23290;SDS011;11814;44.686;10.842;2022-10-16T08:46:45;38.60;;;25.52;;
23290;SDS011;11814;44.686;10.842;2022-10-16T08:49:29;38.63;;;25.13;;
23290;SDS011;11814;44.686;10.842;2022-10-16T08:51:55;38.08;;;26.23;;
23290;SDS011;11814;44.686;10.842;2022-10-16T08:57:09;43.88;;;28.10;;
23290;SDS011;11814;44.686;10.842;2022-10-16T08:59:36;45.50;;;29.80;;
23290;SDS011;11814;44.686;10.842;2022-10-16T09:02:02;52.63;;;34.70;;
23290;SDS011;11814;44.686;10.842;2022-10-16T09:13:16;59.75;;;39.05;;
23290;SDS011;11814;44.686;10.842;2022-10-16T09:20:53;63.40;;;39.40;;
23290;SDS011;11814;44.686;10.842;2022-10-16T09:23:36;63.50;;;42.70;;
23290;SDS011;11814;44.686;10.842;2022-10-16T09:26:03;64.68;;;42.10;;
23290;SDS011;11814;44.686;10.842;2022-10-16T09:28:34;74.47;;;43.65;;
23290;SDS011;11814;44.686;10.842;2022-10-16T09:31:00;68.32;;;43.45;;
23290;SDS011;11814;44.686;10.842;2022-10-16T09:33:30;55.30;;;36.13;;
23290;SDS011;11814;44.686;10.842;2022-10-16T09:35:59;61.17;;;41.00;;
23290;SDS011;11814;44.686;10.842;2022-10-16T09:38:29;71.22;;;43.10;;
23290;SDS011;11814;44.686;10.842;2022-10-16T09:41:01;62.78;;;38.35;;
23290;SDS011;11814;44.686;10.842;2022-10-16T09:44:00;66.00;;;42.13;;
23290;SDS011;11814;44.686;10.842;2022-10-16T09:46:31;64.60;;;42.63;;
23290;SDS011;11814;44.686;10.842;2022-10-16T09:48:59;68.22;;;42.78;;
23290;SDS011;11814;44.686;10.842;2022-10-16T09:51:31;62.20;;;38.88;;
23290;SDS011;11814;44.686;10.842;2022-10-16T09:54:21;55.50;;;35.70;;
23290;SDS011;11814;44.686;10.842;2022-10-16T09:56:46;61.00;;;39.13;;
23290;SDS011;11814;44.686;10.842;2022-10-16T09:59:20;58.10;;;36.63;;
23290;SDS011;11814;44.686;10.842;2022-10-16T10:01:54;55.65;;;34.40;;
23290;SDS011;11814;44.686;10.842;2022-10-16T10:04:21;52.55;;;34.03;;
23290;SDS011;11814;44.686;10.842;2022-10-16T10:06:50;57.75;;;38.30;;
23290;SDS011;11814;44.686;10.842;2022-10-16T10:11:50;55.28;;;36.13;;
23290;SDS011;11814;44.686;10.842;2022-10-16T10:14:27;56.80;;;36.72;;
23290;SDS011;11814;44.686;10.842;2022-10-16T10:17:09;55.00;;;34.58;;
23290;SDS011;11814;44.686;10.842;2022-10-16T10:22:58;54.95;;;35.65;;
23290;SDS011;11814;44.686;10.842;2022-10-16T10:27:50;49.97;;;32.53;;
23290;SDS011;11814;44.686;10.842;2022-10-16T10:30:23;53.22;;;32.38;;
23290;SDS011;11814;44.686;10.842;2022-10-16T10:35:49;52.85;;;32.40;;
23290;SDS011;11814;44.686;10.842;2022-10-16T10:44:13;48.55;;;29.63;;
23290;SDS011;11814;44.686;10.842;2022-10-16T10:47:17;48.80;;;31.45;;
23290;SDS011;11814;44.686;10.842;2022-10-16T11:05:43;51.63;;;32.80;;
23290;SDS011;11814;44.686;10.842;2022-10-16T11:10:53;53.05;;;33.42;;
23290;SDS011;11814;44.686;10.842;2022-10-16T11:16:10;47.47;;;30.63;;
23290;SDS011;11814;44.686;10.842;2022-10-16T11:21:34;45.03;;;29.20;;
23290;SDS011;11814;44.686;10.842;2022-10-16T11:24:09;48.25;;;30.30;;
23290;SDS011;11814;44.686;10.842;2022-10-16T11:26:44;36.40;;;24.40;;
23290;SDS011;11814;44.686;10.842;2022-10-16T11:29:13;35.92;;;23.25;;
23290;SDS011;11814;44.686;10.842;2022-10-16T11:31:51;35.97;;;21.23;;
23290;SDS011;11814;44.686;10.842;2022-10-16T11:34:22;35.58;;;22.20;;
23290;SDS011;11814;44.686;10.842;2022-10-16T11:39:27;39.72;;;25.50;;
23290;SDS011;11814;44.686;10.842;2022-10-16T11:47:31;44.40;;;28.85;;
23290;SDS011;11814;44.686;10.842;2022-10-16T11:56:04;43.40;;;27.25;;
23290;SDS011;11814;44.686;10.842;2022-10-16T11:58:31;44.28;;;27.42;;
23290;SDS011;11814;44.686;10.842;2022-10-16T12:08:51;40.80;;;27.38;;
23290;SDS011;11814;44.686;10.842;2022-10-16T12:19:19;42.25;;;27.35;;
23290;SDS011;11814;44.686;10.842;2022-10-16T12:21:45;40.75;;;26.50;;
23290;SDS011;11814;44.686;10.842;2022-10-16T12:24:22;39.75;;;25.45;;
23290;SDS011;11814;44.686;10.842;2022-10-16T12:26:51;40.55;;;26.00;;
23290;SDS011;11814;44.686;10.842;2022-10-16T12:32:34;40.50;;;22.85;;
23290;SDS011;11814;44.686;10.842;2022-10-16T12:35:03;39.33;;;24.48;;
23290;SDS011;11814;44.686;10.842;2022-10-16T12:37:32;39.92;;;23.13;;
23290;SDS011;11814;44.686;10.842;2022-10-16T12:40:11;39.05;;;24.95;;
23290;SDS011;11814;44.686;10.842;2022-10-16T12:42:46;35.35;;;24.02;;
23290;SDS011;11814;44.686;10.842;2022-10-16T12:45:31;37.92;;;23.88;;
23290;SDS011;11814;44.686;10.842;2022-10-16T12:48:02;36.45;;;23.15;;
23290;SDS011;11814;44.686;10.842;2022-10-16T12:50:31;32.70;;;21.80;;
23290;SDS011;11814;44.686;10.842;2022-10-16T12:52:58;39.55;;;23.50;;
23290;SDS011;11814;44.686;10.842;2022-10-16T12:55:25;40.05;;;25.30;;
23290;SDS011;11814;44.686;10.842;2022-10-16T12:58:08;36.70;;;24.60;;
23290;SDS011;11814;44.686;10.842;2022-10-16T13:00:57;33.13;;;22.58;;
23290;SDS011;11814;44.686;10.842;2022-10-16T13:09:35;37.25;;;21.05;;
23290;SDS011;11814;44.686;10.842;2022-10-16T13:28:34;26.65;;;18.45;;
23290;SDS011;11814;44.686;10.842;2022-10-16T13:31:02;32.67;;;19.42;;
23290;SDS011;11814;44.686;10.842;2022-10-16T13:33:33;29.33;;;17.40;;
23290;SDS011;11814;44.686;10.842;2022-10-16T13:36:02;30.65;;;17.52;;
23290;SDS011;11814;44.686;10.842;2022-10-16T13:38:30;29.52;;;17.27;;
23290;SDS011;11814;44.686;10.842;2022-10-16T13:41:00;26.63;;;16.35;;
23290;SDS011;11814;44.686;10.842;2022-10-16T13:43:35;28.02;;;15.77;;
23290;SDS011;11814;44.686;10.842;2022-10-16T13:46:02;23.75;;;16.10;;
23290;SDS011;11814;44.686;10.842;2022-10-16T13:48:35;25.17;;;16.27;;
23290;SDS011;11814;44.686;10.842;2022-10-16T13:53:40;24.63;;;16.27;;
23290;SDS011;11814;44.686;10.842;2022-10-16T13:56:09;28.27;;;16.95;;
23290;SDS011;11814;44.686;10.842;2022-10-16T13:58:46;27.40;;;17.00;;
23290;SDS011;11814;44.686;10.842;2022-10-16T14:01:23;24.67;;;15.77;;
23290;SDS011;11814;44.686;10.842;2022-10-16T14:03:52;23.48;;;15.05;;
23290;SDS011;11814;44.686;10.842;2022-10-16T14:06:25;23.85;;;14.20;;
23290;SDS011;11814;44.686;10.842;2022-10-16T14:09:01;28.75;;;16.00;;
23290;SDS011;11814;44.686;10.842;2022-10-16T14:11:31;21.85;;;14.02;;
23290;SDS011;11814;44.686;10.842;2022-10-16T14:13:58;27.77;;;14.60;;
23290;SDS011;11814;44.686;10.842;2022-10-16T14:16:29;24.02;;;15.15;;
23290;SDS011;11814;44.686;10.842;2022-10-16T14:19:03;22.25;;;13.55;;
23290;SDS011;11814;44.686;10.842;2022-10-16T14:21:35;21.40;;;13.07;;
23290;SDS011;11814;44.686;10.842;2022-10-16T14:24:22;21.50;;;13.50;;
23290;SDS011;11814;44.686;10.842;2022-10-16T14:26:51;24.83;;;12.25;;
23290;SDS011;11814;44.686;10.842;2022-10-16T14:29:19;17.85;;;12.18;;
23290;SDS011;11814;44.686;10.842;2022-10-16T14:34:26;21.00;;;13.07;;
23290;SDS011;11814;44.686;10.842;2022-10-16T14:36:55;21.77;;;12.48;;
23290;SDS011;11814;44.686;10.842;2022-10-16T14:39:22;17.65;;;11.48;;
23290;SDS011;11814;44.686;10.842;2022-10-16T14:41:54;19.58;;;12.07;;
23290;SDS011;11814;44.686;10.842;2022-10-16T14:44:22;25.95;;;12.32;;
23290;SDS011;11814;44.686;10.842;2022-10-16T14:46:54;20.73;;;11.52;;
23290;SDS011;11814;44.686;10.842;2022-10-16T14:49:20;17.42;;;11.63;;
23290;SDS011;11814;44.686;10.842;2022-10-16T14:51:48;20.02;;;12.05;;
23290;SDS011;11814;44.686;10.842;2022-10-16T14:54:15;16.50;;;10.95;;
23290;SDS011;11814;44.686;10.842;2022-10-16T14:56:49;17.63;;;11.73;;
23290;SDS011;11814;44.686;10.842;2022-10-16T15:02:36;17.90;;;11.48;;
23290;SDS011;11814;44.686;10.842;2022-10-16T15:04:56;18.52;;;11.63;;
23290;SDS011;11814;44.686;10.842;2022-10-16T15:07:23;17.98;;;11.52;;
23290;SDS011;11814;44.686;10.842;2022-10-16T15:09:49;21.33;;;12.40;;
23290;SDS011;11814;44.686;10.842;2022-10-16T15:12:16;21.40;;;11.85;;
23290;SDS011;11814;44.686;10.842;2022-10-16T15:14:42;18.65;;;12.55;;
23290;SDS011;11814;44.686;10.842;2022-10-16T15:17:08;21.92;;;12.88;;
23290;SDS011;11814;44.686;10.842;2022-10-16T15:19:35;23.20;;;13.00;;
23290;SDS011;11814;44.686;10.842;2022-10-16T15:22:01;17.77;;;11.88;;
23290;SDS011;11814;44.686;10.842;2022-10-16T15:24:26;24.13;;;13.88;;
23290;SDS011;11814;44.686;10.842;2022-10-16T15:26:52;20.73;;;13.27;;
23290;SDS011;11814;44.686;10.842;2022-10-16T15:29:18;18.67;;;13.07;;
23290;SDS011;11814;44.686;10.842;2022-10-16T15:31:44;21.45;;;11.52;;
23290;SDS011;11814;44.686;10.842;2022-10-16T15:34:12;20.63;;;13.50;;
23290;SDS011;11814;44.686;10.842;2022-10-16T15:36:38;20.17;;;12.23;;
23290;SDS011;11814;44.686;10.842;2022-10-16T15:39:14;19.23;;;13.00;;
23290;SDS011;11814;44.686;10.842;2022-10-16T15:41:42;19.05;;;13.10;;
23290;SDS011;11814;44.686;10.842;2022-10-16T15:44:08;22.65;;;12.63;;
23290;SDS011;11814;44.686;10.842;2022-10-16T15:46:36;18.80;;;12.07;;
23290;SDS011;11814;44.686;10.842;2022-10-16T15:49:02;20.90;;;12.77;;
23290;SDS011;11814;44.686;10.842;2022-10-16T15:51:29;22.48;;;12.65;;
23290;SDS011;11814;44.686;10.842;2022-10-16T15:53:58;20.83;;;13.27;;
23290;SDS011;11814;44.686;10.842;2022-10-16T15:56:26;21.20;;;12.88;;
23290;SDS011;11814;44.686;10.842;2022-10-16T15:58:53;17.17;;;11.35;;
23290;SDS011;11814;44.686;10.842;2022-10-16T16:01:19;19.90;;;11.90;;
23290;SDS011;11814;44.686;10.842;2022-10-16T16:03:45;19.00;;;11.20;;
23290;SDS011;11814;44.686;10.842;2022-10-16T16:06:12;23.60;;;10.93;;
23290;SDS011;11814;44.686;10.842;2022-10-16T16:08:38;19.42;;;11.20;;
23290;SDS011;11814;44.686;10.842;2022-10-16T16:11:05;17.17;;;10.88;;
23290;SDS011;11814;44.686;10.842;2022-10-16T16:13:33;20.45;;;10.70;;
23290;SDS011;11814;44.686;10.842;2022-10-16T16:15:59;16.30;;;10.23;;
23290;SDS011;11814;44.686;10.842;2022-10-16T16:18:25;16.38;;;9.68;;
23290;SDS011;11814;44.686;10.842;2022-10-16T16:20:51;17.25;;;10.40;;
23290;SDS011;11814;44.686;10.842;2022-10-16T16:23:18;15.05;;;10.30;;
23290;SDS011;11814;44.686;10.842;2022-10-16T16:25:45;15.65;;;10.13;;
23290;SDS011;11814;44.686;10.842;2022-10-16T16:28:26;18.15;;;9.75;;
23290;SDS011;11814;44.686;10.842;2022-10-16T16:30:52;16.58;;;9.77;;
23290;SDS011;11814;44.686;10.842;2022-10-16T16:33:18;16.00;;;9.48;;
23290;SDS011;11814;44.686;10.842;2022-10-16T16:35:43;13.10;;;8.52;;
23290;SDS011;11814;44.686;10.842;2022-10-16T16:38:09;14.40;;;8.02;;
23290;SDS011;11814;44.686;10.842;2022-10-16T16:40:35;16.70;;;8.55;;